createdAt,value
2019-03-24T00:00:31.383Z,49.00
2019-03-24T00:02:59.927Z,48.70
2019-03-24T00:05:28.343Z,47.13
2019-03-24T00:07:57.001Z,46.43
2019-03-24T00:10:25.491Z,46.93
2019-03-24T00:12:53.946Z,45.47
2019-03-24T00:15:26.456Z,47.60
2019-03-24T00:17:52.948Z,45.10
2019-03-24T00:20:21.356Z,46.93
2019-03-24T00:22:50.041Z,45.37
2019-03-24T00:25:18.505Z,48.47
2019-03-24T00:27:46.978Z,46.57
2019-03-24T00:30:15.957Z,48.23
2019-03-24T00:32:44.401Z,47.33
2019-03-24T00:35:12.931Z,47.33
2019-03-24T00:37:41.368Z,46.87
2019-03-24T00:40:09.959Z,48.40
2019-03-24T00:42:38.392Z,49.73
2019-03-24T00:45:08.517Z,47.57
2019-03-24T00:47:36.969Z,48.53
2019-03-24T00:50:06.620Z,46.40
2019-03-24T00:52:35.085Z,48.20
2019-03-24T00:55:04.499Z,46.50
2019-03-24T00:57:32.907Z,49.07
2019-03-24T01:00:01.369Z,48.90
2019-03-24T01:02:29.880Z,49.03
2019-03-24T01:04:58.397Z,45.57
2019-03-24T01:07:26.879Z,48.70
2019-03-24T01:09:55.374Z,47.87
2019-03-24T01:12:23.863Z,50.67
2019-03-24T01:14:52.302Z,48.77
2019-03-24T01:17:20.816Z,50.43
2019-03-24T01:19:49.256Z,52.17
2019-03-24T01:22:17.685Z,50.50
2019-03-24T01:24:46.132Z,49.37
2019-03-24T01:27:14.540Z,50.00
2019-03-24T01:29:42.993Z,47.70
2019-03-24T01:32:11.411Z,47.87
2019-03-24T01:34:39.918Z,45.20
2019-03-24T01:37:08.333Z,46.10
2019-03-24T01:39:36.790Z,49.10
2019-03-24T01:42:05.261Z,44.70
2019-03-24T01:44:33.699Z,49.37
2019-03-24T01:47:02.136Z,48.20
2019-03-24T01:49:30.602Z,49.37
2019-03-24T01:51:59.028Z,48.90
2019-03-24T01:54:27.495Z,48.70
2019-03-24T01:56:55.908Z,50.70
2019-03-24T01:59:24.355Z,52.40
2019-03-24T02:01:52.772Z,46.37
2019-03-24T02:04:21.210Z,45.73
2019-03-24T02:06:49.660Z,48.90
2019-03-24T02:09:18.146Z,45.10
2019-03-24T02:11:46.572Z,47.67
2019-03-24T02:14:15.002Z,47.20
2019-03-24T02:16:43.449Z,47.93
2019-03-24T02:19:12.001Z,48.80
2019-03-24T02:21:40.436Z,49.37
2019-03-24T02:24:08.865Z,47.50
2019-03-24T02:26:37.343Z,46.73
2019-03-24T02:29:05.756Z,48.83
2019-03-24T02:31:34.194Z,44.90
2019-03-24T02:34:02.644Z,45.73
2019-03-24T02:36:31.078Z,49.37
2019-03-24T02:38:59.507Z,45.83
2019-03-24T02:41:27.936Z,48.63
2019-03-24T02:43:56.350Z,47.70
2019-03-24T02:46:25.208Z,48.87
2019-03-24T02:48:53.789Z,46.93
2019-03-24T02:51:22.294Z,45.47
2019-03-24T02:53:50.718Z,49.43
2019-03-24T02:56:19.170Z,46.87
2019-03-24T02:58:47.668Z,46.13
2019-03-24T03:01:16.137Z,46.33
2019-03-24T03:03:44.565Z,47.60
2019-03-24T03:06:13.015Z,45.97
2019-03-24T03:08:41.422Z,47.10
2019-03-24T03:11:09.908Z,45.53
2019-03-24T03:13:38.373Z,47.53
2019-03-24T03:16:06.899Z,45.17
2019-03-24T03:18:35.425Z,45.33
2019-03-24T03:21:04.164Z,47.47
2019-03-24T03:23:32.564Z,46.57
2019-03-24T03:26:00.997Z,45.20
2019-03-24T03:28:29.434Z,48.10
2019-03-24T03:30:57.863Z,45.20
2019-03-24T03:33:26.437Z,46.73
2019-03-24T03:35:54.847Z,43.87
2019-03-24T03:38:23.292Z,46.93
2019-03-24T03:40:51.769Z,47.97
2019-03-24T03:43:20.450Z,44.70
2019-03-24T03:45:48.870Z,43.40
2019-03-24T03:48:17.342Z,45.37
2019-03-24T03:50:45.829Z,44.27
2019-03-24T03:53:14.260Z,45.77
2019-03-24T03:55:42.666Z,44.17
2019-03-24T03:58:11.149Z,43.10
2019-03-24T04:00:39.661Z,43.90
2019-03-24T04:03:08.563Z,44.00
2019-03-24T04:05:37.028Z,45.53
2019-03-24T04:08:06.228Z,43.90
2019-03-24T04:10:34.749Z,43.70
2019-03-24T04:13:03.311Z,44.87
2019-03-24T04:15:31.762Z,43.23
2019-03-24T04:18:00.173Z,44.13
2019-03-24T04:20:28.614Z,43.53
2019-03-24T04:22:57.019Z,43.77
2019-03-24T04:25:25.529Z,41.47
2019-03-24T04:27:54.014Z,42.53
2019-03-24T04:30:22.485Z,45.33
2019-03-24T04:32:50.945Z,40.93
2019-03-24T04:35:19.397Z,41.93
2019-03-24T04:37:47.894Z,42.73
2019-03-24T04:40:16.324Z,41.40
2019-03-24T04:42:44.732Z,40.30
2019-03-24T04:45:13.320Z,39.20
2019-03-24T04:47:41.732Z,37.87
2019-03-24T04:50:10.705Z,35.20
2019-03-24T04:52:39.122Z,38.67
2019-03-24T04:55:08.079Z,35.00
2019-03-24T04:57:36.628Z,36.63
2019-03-24T05:00:07.607Z,35.67
2019-03-24T05:02:36.020Z,38.03
2019-03-24T05:05:06.828Z,35.90
2019-03-24T05:07:35.304Z,34.87
2019-03-24T05:10:05.674Z,34.03
2019-03-24T05:12:34.301Z,34.23
2019-03-24T05:15:02.715Z,34.47
2019-03-24T05:17:31.150Z,34.23
2019-03-24T05:19:59.569Z,34.57
2019-03-24T05:22:28.009Z,34.13
2019-03-24T05:24:56.420Z,35.70
2019-03-24T05:27:24.861Z,32.43
2019-03-24T05:29:53.293Z,34.50
2019-03-24T05:32:21.781Z,32.97
2019-03-24T05:34:50.220Z,32.37
2019-03-24T05:37:18.658Z,33.90
2019-03-24T05:39:47.073Z,32.97
2019-03-24T05:42:15.509Z,32.40
2019-03-24T05:44:43.970Z,33.50
2019-03-24T05:47:12.440Z,32.20
2019-03-24T05:49:40.893Z,33.43
2019-03-24T05:52:09.309Z,31.93
2019-03-24T05:54:37.758Z,31.83
2019-03-24T05:57:06.207Z,32.50
2019-03-24T05:59:34.680Z,33.30
2019-03-24T06:02:03.100Z,32.47
2019-03-24T06:04:31.580Z,32.60
2019-03-24T06:07:00.015Z,31.33
2019-03-24T06:09:28.496Z,33.70
2019-03-24T06:11:56.923Z,32.37
2019-03-24T06:14:25.468Z,33.90
2019-03-24T06:16:53.904Z,35.13
2019-03-24T06:19:22.333Z,32.40
2019-03-24T06:21:50.809Z,33.60
2019-03-24T06:24:19.331Z,33.00
2019-03-24T06:26:47.823Z,33.77
2019-03-24T06:29:16.324Z,33.47
2019-03-24T06:31:44.857Z,35.10
2019-03-24T06:34:13.367Z,34.80
2019-03-24T06:36:41.809Z,35.80
2019-03-24T06:39:10.277Z,36.47
2019-03-24T06:41:38.684Z,34.40
2019-03-24T06:44:07.242Z,37.17
2019-03-24T06:46:35.772Z,34.90
2019-03-24T06:49:04.226Z,33.43
2019-03-24T06:51:32.793Z,34.37
2019-03-24T06:54:01.241Z,36.73
2019-03-24T06:56:29.790Z,36.27
2019-03-24T06:58:58.220Z,38.83
2019-03-24T07:01:26.719Z,35.43
2019-03-24T07:03:55.160Z,37.80
2019-03-24T07:06:23.608Z,38.50
2019-03-24T07:08:52.064Z,40.13
2019-03-24T07:11:20.500Z,37.77
2019-03-24T07:13:49.081Z,37.23
2019-03-24T07:16:18.600Z,36.50
2019-03-24T07:18:47.242Z,38.10
2019-03-24T07:21:15.737Z,38.77
2019-03-24T07:23:44.204Z,37.80
2019-03-24T07:26:12.776Z,39.67
2019-03-24T07:28:41.228Z,37.70
2019-03-24T07:31:09.752Z,38.33
2019-03-24T07:33:38.216Z,37.67
2019-03-24T07:36:06.670Z,39.50
2019-03-24T07:38:35.086Z,37.20
2019-03-24T07:41:03.532Z,38.37
2019-03-24T07:43:32.272Z,38.77
2019-03-24T07:46:00.926Z,39.17
2019-03-24T07:48:29.358Z,37.87
2019-03-24T07:50:57.807Z,40.03
2019-03-24T07:53:26.313Z,42.23
2019-03-24T07:55:54.888Z,40.37
2019-03-24T07:58:23.385Z,40.73
2019-03-24T08:00:51.807Z,40.63
2019-03-24T08:03:20.330Z,40.80
2019-03-24T08:05:48.811Z,44.47
2019-03-24T08:08:17.246Z,44.80
2019-03-24T08:10:45.701Z,44.73
2019-03-24T08:13:14.172Z,45.53
2019-03-24T08:15:42.670Z,45.60
2019-03-24T08:18:11.187Z,48.60
2019-03-24T08:20:39.727Z,48.90
2019-03-24T08:23:08.207Z,46.97
2019-03-24T08:25:36.624Z,49.63
2019-03-24T08:28:05.168Z,51.57
2019-03-24T08:30:35.260Z,48.93
2019-03-24T08:33:04.595Z,50.87
2019-03-24T08:35:33.037Z,52.50
2019-03-24T08:38:01.754Z,49.00
2019-03-24T08:40:30.356Z,51.00
2019-03-24T08:42:58.842Z,50.60
2019-03-24T08:45:29.150Z,51.90
2019-03-24T08:47:58.043Z,50.80
2019-03-24T08:50:26.626Z,52.63
2019-03-24T08:52:55.072Z,50.70
2019-03-24T08:55:23.562Z,44.13
2019-03-24T08:57:51.978Z,50.50
2019-03-24T09:00:30.135Z,52.20
2019-03-24T09:02:50.629Z,52.63
2019-03-24T09:05:19.065Z,49.97
2019-03-24T09:07:47.514Z,52.90
2019-03-24T09:10:16.410Z,55.27
2019-03-24T09:12:44.854Z,52.23
2019-03-24T09:15:13.642Z,49.87
2019-03-24T09:17:42.096Z,50.40
2019-03-24T09:20:10.801Z,50.60
2019-03-24T09:22:39.344Z,52.10
2019-03-24T09:25:08.264Z,49.00
2019-03-24T09:27:36.946Z,48.50
2019-03-24T09:30:08.072Z,47.73
2019-03-24T09:32:36.582Z,51.53
2019-03-24T09:35:06.193Z,52.00
2019-03-24T09:37:34.636Z,50.13
2019-03-24T09:40:03.357Z,50.90
2019-03-24T09:42:31.849Z,49.40
2019-03-24T09:45:00.409Z,50.27
2019-03-24T09:47:28.874Z,49.67
2019-03-24T09:49:57.353Z,50.23
2019-03-24T09:52:25.810Z,51.40
2019-03-24T09:54:54.227Z,50.27
2019-03-24T09:57:22.849Z,51.13
2019-03-24T09:59:51.312Z,51.90
2019-03-24T10:02:19.741Z,52.83
2019-03-24T10:04:48.225Z,53.37
2019-03-24T10:07:16.650Z,51.27
2019-03-24T10:09:45.132Z,51.27
2019-03-24T10:12:13.626Z,50.47
2019-03-24T10:14:42.057Z,52.10
2019-03-24T10:17:10.509Z,52.87
2019-03-24T10:19:38.945Z,53.50
2019-03-24T10:22:07.428Z,56.87
2019-03-24T10:24:35.950Z,56.37
2019-03-24T10:27:04.406Z,54.03
2019-03-24T10:29:32.808Z,57.83
2019-03-24T10:32:01.275Z,55.67
2019-03-24T10:34:29.724Z,56.83
2019-03-24T10:36:58.224Z,55.27
2019-03-24T10:39:26.694Z,53.80
2019-03-24T10:41:55.135Z,55.07
2019-03-24T10:44:23.588Z,57.13
2019-03-24T10:46:52.049Z,55.97
2019-03-24T10:49:24.860Z,53.90
2019-03-24T10:51:50.647Z,53.97
2019-03-24T10:54:19.092Z,53.63
2019-03-24T10:56:47.539Z,54.43
2019-03-24T10:59:16.018Z,53.03
2019-03-24T11:01:44.498Z,55.70
2019-03-24T11:04:15.913Z,54.33
2019-03-24T11:06:43.923Z,51.70
2019-03-24T11:09:12.416Z,56.67
2019-03-24T11:11:40.906Z,54.60
2019-03-24T11:14:09.357Z,56.37
2019-03-24T11:16:37.828Z,52.40
2019-03-24T11:19:06.286Z,52.20
2019-03-24T11:21:34.740Z,53.43
2019-03-24T11:24:03.217Z,53.07
2019-03-24T11:26:31.646Z,53.00
2019-03-24T11:29:00.093Z,51.47
2019-03-24T11:31:28.551Z,52.03
2019-03-24T11:33:56.981Z,51.60
2019-03-24T11:36:25.551Z,51.60
2019-03-24T11:38:53.948Z,51.00
2019-03-24T11:41:22.484Z,49.30
2019-03-24T11:43:50.919Z,53.07
2019-03-24T11:46:19.426Z,51.00
2019-03-24T11:48:47.878Z,50.23
2019-03-24T11:51:16.385Z,49.97
2019-03-24T11:53:44.814Z,44.97
2019-03-24T11:56:13.253Z,46.93
2019-03-24T11:58:41.788Z,44.40
2019-03-24T12:01:10.322Z,44.47
2019-03-24T12:03:38.765Z,46.70
2019-03-24T12:06:14.517Z,46.30
2019-03-24T12:08:38.848Z,46.30
2019-03-24T12:11:07.430Z,44.60
2019-03-24T12:13:35.834Z,46.13
2019-03-24T12:16:04.458Z,44.87
2019-03-24T12:18:32.977Z,41.87
2019-03-24T12:21:01.466Z,45.23
2019-03-24T12:23:29.937Z,42.23
2019-03-24T12:25:58.506Z,41.37
2019-03-24T12:28:26.929Z,41.70
2019-03-24T12:30:55.360Z,41.50
2019-03-24T12:33:23.829Z,43.80
2019-03-24T12:35:52.229Z,43.17
2019-03-24T12:38:22.348Z,42.20
2019-03-24T12:40:50.875Z,43.60
2019-03-24T12:43:19.953Z,44.13
2019-03-24T12:45:48.526Z,38.73
2019-03-24T12:48:17.000Z,47.07
2019-03-24T12:50:45.547Z,46.87
2019-03-24T12:53:13.992Z,43.03
2019-03-24T12:55:42.426Z,44.77
2019-03-24T12:58:10.871Z,45.13
2019-03-24T13:00:39.937Z,41.80
2019-03-24T13:03:08.722Z,41.67
2019-03-24T13:05:37.322Z,41.73
2019-03-24T13:08:13.244Z,43.03
2019-03-24T13:10:42.789Z,45.60
2019-03-24T13:13:11.760Z,43.90
2019-03-24T13:15:40.817Z,42.47
2019-03-24T13:18:09.342Z,41.50
2019-03-24T13:20:38.767Z,45.13
2019-03-24T13:23:07.558Z,40.13
2019-03-24T13:25:36.391Z,41.00
2019-03-24T13:28:05.111Z,41.37
2019-03-24T13:30:33.558Z,44.77
2019-03-24T13:33:02.215Z,44.70
2019-03-24T13:35:30.653Z,41.20
2019-03-24T13:37:59.091Z,42.60
2019-03-24T13:40:27.526Z,38.80
2019-03-24T13:42:55.957Z,44.00
2019-03-24T13:45:24.406Z,37.97
2019-03-24T13:47:52.931Z,40.70
2019-03-24T13:50:31.045Z,41.07
2019-03-24T13:52:51.561Z,45.20
2019-03-24T13:55:20.007Z,43.67
2019-03-24T13:57:48.422Z,43.13
2019-03-24T14:00:17.812Z,45.10
2019-03-24T14:02:46.246Z,43.40
2019-03-24T14:05:14.796Z,39.73
2019-03-24T14:07:43.286Z,41.20
2019-03-24T14:10:11.949Z,40.23
2019-03-24T14:12:40.396Z,42.70
2019-03-24T14:15:09.672Z,40.67
2019-03-24T14:17:38.167Z,41.87
2019-03-24T14:20:07.666Z,38.00
2019-03-24T14:22:36.124Z,40.40
2019-03-24T14:25:06.909Z,39.20
2019-03-24T14:27:35.402Z,41.30
2019-03-24T14:30:08.229Z,38.40
2019-03-24T14:32:36.666Z,41.43
2019-03-24T14:35:06.433Z,42.57
2019-03-24T14:37:34.851Z,39.30
2019-03-24T14:40:05.120Z,42.17
2019-03-24T14:42:33.541Z,40.20
2019-03-24T14:45:02.057Z,44.10
2019-03-24T14:47:30.504Z,40.03
2019-03-24T14:49:58.950Z,40.37
2019-03-24T14:52:27.418Z,40.50
2019-03-24T14:54:55.847Z,40.53
2019-03-24T14:57:24.381Z,43.77
2019-03-24T14:59:52.818Z,43.10
2019-03-24T15:02:21.272Z,45.10
2019-03-24T15:04:49.688Z,43.10
2019-03-24T15:07:18.249Z,41.60
2019-03-24T15:09:46.684Z,42.40
2019-03-24T15:12:15.204Z,39.77
2019-03-24T15:14:43.630Z,41.80
2019-03-24T15:17:12.098Z,41.90
2019-03-24T15:19:40.508Z,41.00
2019-03-24T15:22:09.058Z,43.90
2019-03-24T15:24:37.512Z,45.20
2019-03-24T15:27:06.069Z,42.63
2019-03-24T15:29:34.509Z,42.67
2019-03-24T15:32:03.033Z,42.63
2019-03-24T15:34:31.454Z,42.70
2019-03-24T15:36:59.954Z,44.90
2019-03-24T15:39:28.430Z,46.60
2019-03-24T15:41:56.877Z,42.67
2019-03-24T15:44:25.331Z,42.33
2019-03-24T15:46:53.781Z,42.37
2019-03-24T15:49:22.388Z,41.67
2019-03-24T15:51:50.826Z,44.63
2019-03-24T15:54:19.381Z,38.77
2019-03-24T15:56:47.926Z,40.10
2019-03-24T15:59:17.311Z,43.07
2019-03-24T16:01:45.798Z,43.17
2019-03-24T16:04:14.301Z,40.63
2019-03-24T16:06:42.728Z,41.60
2019-03-24T16:09:11.201Z,42.00
2019-03-24T16:11:39.611Z,44.17
2019-03-24T16:14:08.069Z,40.90
2019-03-24T16:16:36.532Z,43.80
2019-03-24T16:19:05.097Z,42.10
2019-03-24T16:21:33.521Z,43.60
2019-03-24T16:24:02.006Z,43.17
2019-03-24T16:26:30.539Z,52.30
2019-03-24T16:28:58.992Z,42.60
2019-03-24T16:31:27.433Z,41.13
2019-03-24T16:33:55.932Z,40.80
2019-03-24T16:36:24.417Z,41.13
2019-03-24T16:39:02.942Z,40.87
2019-03-24T16:41:23.110Z,37.77
2019-03-24T16:43:51.761Z,39.67
2019-03-24T16:46:20.178Z,38.43
2019-03-24T16:48:48.619Z,39.67
2019-03-24T16:51:17.092Z,38.90
2019-03-24T16:53:45.550Z,41.70
2019-03-24T16:56:14.053Z,39.93
2019-03-24T16:58:42.538Z,35.90
2019-03-24T17:01:11.063Z,37.80
2019-03-24T17:03:39.582Z,33.20
2019-03-24T17:06:10.115Z,37.10
2019-03-24T17:08:38.330Z,36.63
2019-03-24T17:11:06.813Z,38.90
2019-03-24T17:13:35.255Z,39.90
2019-03-24T17:16:03.751Z,38.77
2019-03-24T17:18:32.242Z,40.97
2019-03-24T17:21:00.844Z,38.70
2019-03-24T17:23:29.335Z,38.57
2019-03-24T17:25:57.818Z,37.03
2019-03-24T17:28:26.231Z,38.80
2019-03-24T17:30:54.777Z,35.33
2019-03-24T17:33:23.223Z,36.87
2019-03-24T17:35:51.790Z,37.63
2019-03-24T17:38:20.285Z,37.87
2019-03-24T17:40:48.723Z,40.03
2019-03-24T17:43:17.274Z,38.60
2019-03-24T17:45:45.785Z,37.70
2019-03-24T17:48:14.382Z,37.67
2019-03-24T17:50:42.957Z,37.63
2019-03-24T17:53:11.500Z,37.50
2019-03-24T17:55:39.959Z,35.80
2019-03-24T17:58:08.389Z,39.20
2019-03-24T18:00:40.378Z,37.50
2019-03-24T18:03:08.968Z,38.30
2019-03-24T18:05:37.637Z,39.07
2019-03-24T18:08:06.265Z,37.43
2019-03-24T18:10:34.715Z,40.17
2019-03-24T18:13:03.315Z,38.40
2019-03-24T18:15:31.809Z,38.60
2019-03-24T18:18:00.320Z,37.67
2019-03-24T18:20:30.822Z,39.27
2019-03-24T18:22:59.329Z,38.70
2019-03-24T18:25:27.850Z,38.53
2019-03-24T18:27:56.551Z,39.67
2019-03-24T18:30:26.689Z,39.20
2019-03-24T18:32:55.305Z,40.57
2019-03-24T18:35:23.801Z,36.13
2019-03-24T18:37:52.249Z,38.87
2019-03-24T18:40:22.091Z,39.30
2019-03-24T18:42:50.525Z,38.93
2019-03-24T18:45:20.332Z,38.00
2019-03-24T18:47:48.912Z,38.20
2019-03-24T18:50:17.625Z,38.73
2019-03-24T18:52:46.237Z,36.90
2019-03-24T18:55:15.676Z,38.53
2019-03-24T18:57:44.281Z,37.20
2019-03-24T19:00:14.255Z,37.00
2019-03-24T19:02:42.829Z,35.63
2019-03-24T19:05:11.693Z,38.27
2019-03-24T19:07:40.288Z,38.20
2019-03-24T19:10:11.106Z,33.70
2019-03-24T19:12:39.604Z,36.40
2019-03-24T19:15:10.201Z,35.73
2019-03-24T19:17:38.749Z,36.67
2019-03-24T19:20:07.858Z,36.50
2019-03-24T19:22:36.451Z,37.57
2019-03-24T19:25:07.776Z,36.57
2019-03-24T19:27:36.312Z,35.60
2019-03-24T19:30:13.796Z,34.97
2019-03-24T19:32:42.419Z,34.60
2019-03-24T19:35:12.699Z,34.27
2019-03-24T19:37:42.237Z,35.90
2019-03-24T19:40:27.542Z,36.03
2019-03-24T19:42:56.204Z,34.53
2019-03-24T19:45:25.106Z,32.23
2019-03-24T19:47:55.156Z,36.60
2019-03-24T19:50:23.906Z,34.13
2019-03-24T19:52:52.550Z,34.83
2019-03-24T19:55:21.001Z,34.30
2019-03-24T19:57:49.590Z,34.03
2019-03-24T20:00:18.203Z,34.63
2019-03-24T20:02:46.697Z,33.47
2019-03-24T20:05:15.209Z,33.17
2019-03-24T20:07:47.865Z,32.80
2019-03-24T20:10:14.023Z,34.43
2019-03-24T20:12:42.581Z,32.97
2019-03-24T20:15:11.195Z,31.47
2019-03-24T20:17:39.754Z,30.67
2019-03-24T20:20:08.557Z,32.50
2019-03-24T20:22:37.103Z,32.57
2019-03-24T20:25:07.286Z,31.87
2019-03-24T20:27:35.807Z,34.40
2019-03-24T20:30:10.490Z,32.77
2019-03-24T20:32:39.147Z,33.10
2019-03-24T20:35:08.231Z,31.80
2019-03-24T20:37:36.698Z,32.97
2019-03-24T20:40:06.498Z,31.90
2019-03-24T20:42:35.018Z,33.03
2019-03-24T20:45:04.693Z,34.90
2019-03-24T20:47:33.130Z,30.77
2019-03-24T20:50:03.760Z,34.47
2019-03-24T20:52:31.849Z,32.53
2019-03-24T20:55:00.365Z,32.03
2019-03-24T20:57:28.934Z,31.23
2019-03-24T20:59:57.394Z,30.73
2019-03-24T21:02:25.899Z,30.87
2019-03-24T21:04:54.507Z,32.03
2019-03-24T21:07:22.976Z,31.13
2019-03-24T21:09:51.505Z,30.30
2019-03-24T21:12:20.059Z,34.83
2019-03-24T21:14:48.518Z,30.90
2019-03-24T21:17:16.974Z,30.03
2019-03-24T21:19:45.466Z,28.60
2019-03-24T21:22:13.975Z,29.33
2019-03-24T21:24:42.475Z,28.63
2019-03-24T21:27:10.913Z,31.50
2019-03-24T21:29:39.444Z,31.07
2019-03-24T21:32:07.977Z,28.30
2019-03-24T21:34:36.413Z,26.40
2019-03-24T21:37:04.931Z,26.90
2019-03-24T21:39:33.390Z,25.00
2019-03-24T21:42:01.892Z,23.43
2019-03-24T21:44:30.423Z,25.43
2019-03-24T21:46:58.880Z,23.93
2019-03-24T21:49:27.408Z,23.00
2019-03-24T21:51:55.864Z,24.70
2019-03-24T21:54:24.312Z,24.23
2019-03-24T21:56:52.766Z,23.77
2019-03-24T21:59:21.268Z,24.60
2019-03-24T22:01:49.719Z,24.20
2019-03-24T22:04:18.154Z,21.87
2019-03-24T22:06:46.641Z,24.10
2019-03-24T22:09:15.064Z,22.77
2019-03-24T22:11:43.597Z,23.27
2019-03-24T22:14:12.108Z,22.80
2019-03-24T22:16:40.578Z,25.10
2019-03-24T22:19:09.013Z,23.57
2019-03-24T22:21:37.520Z,24.20
2019-03-24T22:24:05.963Z,24.47
2019-03-24T22:26:34.390Z,25.23
2019-03-24T22:29:02.837Z,22.60
2019-03-24T22:31:31.322Z,22.47
2019-03-24T22:33:59.896Z,20.40
2019-03-24T22:36:28.338Z,20.40
2019-03-24T22:38:56.879Z,20.17
2019-03-24T22:41:25.337Z,21.37
2019-03-24T22:43:53.777Z,20.00
2019-03-24T22:46:22.222Z,19.07
2019-03-24T22:48:50.650Z,19.23
2019-03-24T22:51:19.146Z,22.07
2019-03-24T22:53:47.590Z,20.90
2019-03-24T22:56:16.008Z,19.77
2019-03-24T22:58:44.537Z,19.63
2019-03-24T23:01:13.735Z,20.67
2019-03-24T23:03:42.319Z,23.10
2019-03-24T23:06:10.733Z,21.73
2019-03-24T23:08:39.229Z,21.93
2019-03-24T23:11:07.735Z,22.40
2019-03-24T23:13:36.207Z,23.90
2019-03-24T23:16:04.708Z,25.27
2019-03-24T23:18:33.128Z,23.23
2019-03-24T23:21:01.585Z,26.20
2019-03-24T23:23:30.011Z,25.90
2019-03-24T23:25:58.486Z,24.43
2019-03-24T23:28:26.918Z,25.80
2019-03-24T23:30:55.372Z,27.57
2019-03-24T23:33:23.797Z,24.77
2019-03-24T23:35:52.345Z,25.63
2019-03-24T23:38:20.942Z,26.10
2019-03-24T23:40:49.501Z,26.80
2019-03-24T23:43:18.049Z,27.50
2019-03-24T23:45:46.493Z,28.10
2019-03-24T23:48:14.985Z,27.07
2019-03-24T23:50:43.442Z,24.03
2019-03-24T23:53:12.420Z,24.00
2019-03-24T23:55:40.933Z,25.40
2019-03-24T23:58:09.379Z,21.07
